sensor_id;sensor_type;location;lat;lon;timestamp;P1;durP1;ratioP1;P2;durP2;ratioP2
4210;SDS011;2119;48.828;12.396;2023-05-10T00:03:07;5.47;;;5.07;;
4210;SDS011;2119;48.828;12.396;2023-05-10T00:08:08;5.50;;;5.00;;
4210;SDS011;2119;48.828;12.396;2023-05-10T00:13:09;5.27;;;4.97;;
4210;SDS011;2119;48.828;12.396;2023-05-10T00:18:09;6.13;;;4.90;;
4210;SDS011;2119;48.828;12.396;2023-05-10T00:23:09;6.10;;;5.63;;
4210;SDS011;2119;48.828;12.396;2023-05-10T00:28:11;6.30;;;5.80;;
4210;SDS011;2119;48.828;12.396;2023-05-10T00:33:11;5.70;;;5.30;;
4210;SDS011;2119;48.828;12.396;2023-05-10T00:38:12;10.10;;;7.20;;
4210;SDS011;2119;48.828;12.396;2023-05-10T00:43:12;6.10;;;5.60;;
4210;SDS011;2119;48.828;12.396;2023-05-10T00:48:13;5.60;;;5.20;;
4210;SDS011;2119;48.828;12.396;2023-05-10T00:53:13;6.22;;;5.70;;
4210;SDS011;2119;48.828;12.396;2023-05-10T00:58:14;5.70;;;5.30;;
4210;SDS011;2119;48.828;12.396;2023-05-10T01:03:19;5.40;;;5.10;;
4210;SDS011;2119;48.828;12.396;2023-05-10T01:08:27;10.33;;;6.13;;
4210;SDS011;2119;48.828;12.396;2023-05-10T01:13:38;6.20;;;5.80;;
4210;SDS011;2119;48.828;12.396;2023-05-10T01:18:41;6.70;;;6.07;;
4210;SDS011;2119;48.828;12.396;2023-05-10T01:23:56;6.80;;;6.20;;
4210;SDS011;2119;48.828;12.396;2023-05-10T01:29:24;6.97;;;6.00;;
4210;SDS011;2119;48.828;12.396;2023-05-10T01:34:54;6.30;;;5.80;;
4210;SDS011;2119;48.828;12.396;2023-05-10T01:40:02;7.10;;;6.60;;
4210;SDS011;2119;48.828;12.396;2023-05-10T01:45:10;6.80;;;6.20;;
4210;SDS011;2119;48.828;12.396;2023-05-10T01:50:23;7.40;;;6.70;;
4210;SDS011;2119;48.828;12.396;2023-05-10T01:55:28;7.67;;;6.93;;
4210;SDS011;2119;48.828;12.396;2023-05-10T02:00:30;8.57;;;6.63;;
4210;SDS011;2119;48.828;12.396;2023-05-10T02:05:31;7.10;;;6.13;;
4210;SDS011;2119;48.828;12.396;2023-05-10T02:10:36;7.50;;;6.70;;
4210;SDS011;2119;48.828;12.396;2023-05-10T02:15:39;6.93;;;6.43;;
4210;SDS011;2119;48.828;12.396;2023-05-10T02:20:41;6.90;;;6.30;;
4210;SDS011;2119;48.828;12.396;2023-05-10T02:25:47;6.83;;;6.23;;
4210;SDS011;2119;48.828;12.396;2023-05-10T02:30:48;7.27;;;6.73;;
4210;SDS011;2119;48.828;12.396;2023-05-10T02:35:50;7.20;;;6.60;;
4210;SDS011;2119;48.828;12.396;2023-05-10T02:40:50;8.53;;;7.73;;
4210;SDS011;2119;48.828;12.396;2023-05-10T02:45:51;8.33;;;7.63;;
4210;SDS011;2119;48.828;12.396;2023-05-10T02:50:52;8.13;;;7.43;;
4210;SDS011;2119;48.828;12.396;2023-05-10T02:55:53;8.43;;;7.63;;
4210;SDS011;2119;48.828;12.396;2023-05-10T03:00:57;9.60;;;7.57;;
4210;SDS011;2119;48.828;12.396;2023-05-10T03:05:57;8.23;;;7.43;;
4210;SDS011;2119;48.828;12.396;2023-05-10T03:11:08;10.30;;;7.77;;
4210;SDS011;2119;48.828;12.396;2023-05-10T03:16:10;8.70;;;7.70;;
4210;SDS011;2119;48.828;12.396;2023-05-10T03:21:12;8.60;;;7.90;;
4210;SDS011;2119;48.828;12.396;2023-05-10T03:26:17;10.50;;;7.50;;
4210;SDS011;2119;48.828;12.396;2023-05-10T03:31:18;9.53;;;7.93;;
4210;SDS011;2119;48.828;12.396;2023-05-10T03:36:19;9.30;;;8.40;;
4210;SDS011;2119;48.828;12.396;2023-05-10T03:41:19;9.50;;;8.47;;
4210;SDS011;2119;48.828;12.396;2023-05-10T03:46:20;9.90;;;8.90;;
4210;SDS011;2119;48.828;12.396;2023-05-10T03:51:26;8.50;;;7.70;;
4210;SDS011;2119;48.828;12.396;2023-05-10T03:56:28;9.20;;;8.40;;
4210;SDS011;2119;48.828;12.396;2023-05-10T04:01:28;9.90;;;8.90;;
4210;SDS011;2119;48.828;12.396;2023-05-10T04:06:29;10.70;;;9.20;;
4210;SDS011;2119;48.828;12.396;2023-05-10T04:11:30;10.73;;;9.60;;
4210;SDS011;2119;48.828;12.396;2023-05-10T04:16:30;10.17;;;9.17;;
4210;SDS011;2119;48.828;12.396;2023-05-10T04:21:32;11.05;;;9.90;;
4210;SDS011;2119;48.828;12.396;2023-05-10T04:26:33;10.67;;;9.27;;
4210;SDS011;2119;48.828;12.396;2023-05-10T04:31:33;11.63;;;10.50;;
4210;SDS011;2119;48.828;12.396;2023-05-10T04:36:34;11.53;;;10.40;;
4210;SDS011;2119;48.828;12.396;2023-05-10T04:41:36;12.37;;;10.60;;
4210;SDS011;2119;48.828;12.396;2023-05-10T04:46:38;11.63;;;10.43;;
4210;SDS011;2119;48.828;12.396;2023-05-10T04:51:38;11.70;;;10.50;;
4210;SDS011;2119;48.828;12.396;2023-05-10T04:56:38;13.20;;;11.40;;
4210;SDS011;2119;48.828;12.396;2023-05-10T05:01:39;11.20;;;10.20;;
4210;SDS011;2119;48.828;12.396;2023-05-10T05:06:45;12.13;;;10.27;;
4210;SDS011;2119;48.828;12.396;2023-05-10T05:11:45;12.47;;;11.20;;
4210;SDS011;2119;48.828;12.396;2023-05-10T05:16:46;11.90;;;10.75;;
4210;SDS011;2119;48.828;12.396;2023-05-10T05:21:46;12.80;;;11.00;;
4210;SDS011;2119;48.828;12.396;2023-05-10T05:26:47;12.40;;;11.20;;
4210;SDS011;2119;48.828;12.396;2023-05-10T05:31:48;13.73;;;11.87;;
4210;SDS011;2119;48.828;12.396;2023-05-10T05:36:48;12.90;;;10.87;;
4210;SDS011;2119;48.828;12.396;2023-05-10T05:41:49;12.00;;;10.90;;
4210;SDS011;2119;48.828;12.396;2023-05-10T05:46:49;12.73;;;10.33;;
4210;SDS011;2119;48.828;12.396;2023-05-10T05:51:49;13.93;;;12.30;;
4210;SDS011;2119;48.828;12.396;2023-05-10T05:56:50;12.13;;;10.93;;
4210;SDS011;2119;48.828;12.396;2023-05-10T06:01:50;15.10;;;12.33;;
4210;SDS011;2119;48.828;12.396;2023-05-10T06:06:50;13.70;;;12.30;;
4210;SDS011;2119;48.828;12.396;2023-05-10T06:11:51;17.27;;;13.37;;
4210;SDS011;2119;48.828;12.396;2023-05-10T06:16:51;13.20;;;11.80;;
4210;SDS011;2119;48.828;12.396;2023-05-10T06:21:51;14.30;;;12.10;;
4210;SDS011;2119;48.828;12.396;2023-05-10T06:27:06;13.53;;;12.00;;
4210;SDS011;2119;48.828;12.396;2023-05-10T06:32:11;12.80;;;11.50;;
4210;SDS011;2119;48.828;12.396;2023-05-10T06:37:11;13.57;;;12.17;;
4210;SDS011;2119;48.828;12.396;2023-05-10T06:42:12;17.00;;;12.90;;
4210;SDS011;2119;48.828;12.396;2023-05-10T06:47:12;14.05;;;12.07;;
4210;SDS011;2119;48.828;12.396;2023-05-10T06:52:14;14.60;;;12.80;;
4210;SDS011;2119;48.828;12.396;2023-05-10T06:57:14;14.53;;;12.53;;
4210;SDS011;2119;48.828;12.396;2023-05-10T07:02:15;14.65;;;12.02;;
4210;SDS011;2119;48.828;12.396;2023-05-10T07:07:15;13.80;;;12.40;;
4210;SDS011;2119;48.828;12.396;2023-05-10T07:12:15;14.18;;;11.63;;
4210;SDS011;2119;48.828;12.396;2023-05-10T07:17:16;12.93;;;11.68;;
4210;SDS011;2119;48.828;12.396;2023-05-10T07:22:18;15.73;;;13.10;;
4210;SDS011;2119;48.828;12.396;2023-05-10T07:27:18;15.40;;;13.30;;
4210;SDS011;2119;48.828;12.396;2023-05-10T07:32:18;15.20;;;13.63;;
4210;SDS011;2119;48.828;12.396;2023-05-10T07:37:18;17.33;;;14.77;;
4210;SDS011;2119;48.828;12.396;2023-05-10T07:42:21;14.95;;;13.45;;
4210;SDS011;2119;48.828;12.396;2023-05-10T07:47:21;16.90;;;14.77;;
4210;SDS011;2119;48.828;12.396;2023-05-10T07:52:22;15.07;;;11.95;;
4210;SDS011;2119;48.828;12.396;2023-05-10T07:57:22;15.03;;;13.30;;
4210;SDS011;2119;48.828;12.396;2023-05-10T08:02:23;18.00;;;13.50;;
4210;SDS011;2119;48.828;12.396;2023-05-10T08:07:24;13.13;;;11.73;;
4210;SDS011;2119;48.828;12.396;2023-05-10T08:12:24;12.73;;;11.43;;
4210;SDS011;2119;48.828;12.396;2023-05-10T08:17:25;12.50;;;11.23;;
4210;SDS011;2119;48.828;12.396;2023-05-10T08:22:26;13.23;;;11.93;;
4210;SDS011;2119;48.828;12.396;2023-05-10T08:27:27;11.77;;;10.67;;
4210;SDS011;2119;48.828;12.396;2023-05-10T08:32:27;13.00;;;11.70;;
4210;SDS011;2119;48.828;12.396;2023-05-10T08:37:29;13.85;;;12.10;;
4210;SDS011;2119;48.828;12.396;2023-05-10T08:42:30;11.33;;;10.23;;
4210;SDS011;2119;48.828;12.396;2023-05-10T08:47:31;11.50;;;10.40;;
4210;SDS011;2119;48.828;12.396;2023-05-10T08:52:31;12.77;;;10.40;;
4210;SDS011;2119;48.828;12.396;2023-05-10T08:57:32;8.90;;;8.20;;
4210;SDS011;2119;48.828;12.396;2023-05-10T09:02:34;8.63;;;7.82;;
4210;SDS011;2119;48.828;12.396;2023-05-10T09:07:35;8.73;;;7.93;;
4210;SDS011;2119;48.828;12.396;2023-05-10T09:12:37;10.00;;;9.00;;
4210;SDS011;2119;48.828;12.396;2023-05-10T09:17:38;7.93;;;7.33;;
4210;SDS011;2119;48.828;12.396;2023-05-10T09:22:39;8.03;;;7.33;;
4210;SDS011;2119;48.828;12.396;2023-05-10T09:27:41;9.00;;;8.20;;
4210;SDS011;2119;48.828;12.396;2023-05-10T09:32:44;6.80;;;6.30;;
4210;SDS011;2119;48.828;12.396;2023-05-10T09:37:46;7.20;;;6.60;;
4210;SDS011;2119;48.828;12.396;2023-05-10T09:42:54;7.43;;;6.83;;
4210;SDS011;2119;48.828;12.396;2023-05-10T09:47:55;6.20;;;5.70;;
4210;SDS011;2119;48.828;12.396;2023-05-10T09:52:57;7.57;;;6.87;;
4210;SDS011;2119;48.828;12.396;2023-05-10T09:57:59;7.57;;;6.97;;
4210;SDS011;2119;48.828;12.396;2023-05-10T10:02:59;6.47;;;5.97;;
4210;SDS011;2119;48.828;12.396;2023-05-10T10:08:00;6.03;;;5.53;;
4210;SDS011;2119;48.828;12.396;2023-05-10T10:13:01;6.57;;;6.07;;
4210;SDS011;2119;48.828;12.396;2023-05-10T10:18:01;6.07;;;5.60;;
4210;SDS011;2119;48.828;12.396;2023-05-10T10:23:03;7.63;;;5.83;;
4210;SDS011;2119;48.828;12.396;2023-05-10T10:28:13;5.77;;;5.37;;
4210;SDS011;2119;48.828;12.396;2023-05-10T10:38:36;6.23;;;5.73;;
4210;SDS011;2119;48.828;12.396;2023-05-10T10:43:38;4.13;;;3.93;;
4210;SDS011;2119;48.828;12.396;2023-05-10T10:48:38;5.73;;;4.97;;
4210;SDS011;2119;48.828;12.396;2023-05-10T10:53:38;5.37;;;4.87;;
4210;SDS011;2119;48.828;12.396;2023-05-10T10:58:42;5.47;;;5.07;;
4210;SDS011;2119;48.828;12.396;2023-05-10T11:04:22;4.20;;;4.00;;
4210;SDS011;2119;48.828;12.396;2023-05-10T11:09:15;4.93;;;4.63;;
4210;SDS011;2119;48.828;12.396;2023-05-10T11:14:18;4.67;;;4.37;;
4210;SDS011;2119;48.828;12.396;2023-05-10T11:19:19;5.60;;;5.20;;
4210;SDS011;2119;48.828;12.396;2023-05-10T11:24:21;4.40;;;4.03;;
4210;SDS011;2119;48.828;12.396;2023-05-10T11:29:22;4.60;;;4.40;;
4210;SDS011;2119;48.828;12.396;2023-05-10T11:34:29;5.00;;;4.60;;
4210;SDS011;2119;48.828;12.396;2023-05-10T11:39:30;6.40;;;5.07;;
4210;SDS011;2119;48.828;12.396;2023-05-10T11:44:31;4.80;;;4.40;;
4210;SDS011;2119;48.828;12.396;2023-05-10T11:49:33;3.40;;;3.20;;
4210;SDS011;2119;48.828;12.396;2023-05-10T11:54:33;3.97;;;3.57;;
4210;SDS011;2119;48.828;12.396;2023-05-10T11:59:35;3.70;;;3.50;;
4210;SDS011;2119;48.828;12.396;2023-05-10T12:04:36;5.33;;;4.93;;
4210;SDS011;2119;48.828;12.396;2023-05-10T12:09:36;4.97;;;4.57;;
4210;SDS011;2119;48.828;12.396;2023-05-10T12:14:41;4.63;;;4.32;;
4210;SDS011;2119;48.828;12.396;2023-05-10T12:19:42;4.57;;;4.27;;
4210;SDS011;2119;48.828;12.396;2023-05-10T12:24:45;3.70;;;3.50;;
4210;SDS011;2119;48.828;12.396;2023-05-10T12:29:45;4.57;;;4.00;;
4210;SDS011;2119;48.828;12.396;2023-05-10T12:34:46;3.40;;;3.20;;
4210;SDS011;2119;48.828;12.396;2023-05-10T12:39:48;4.30;;;4.10;;
4210;SDS011;2119;48.828;12.396;2023-05-10T12:44:49;4.90;;;4.60;;
4210;SDS011;2119;48.828;12.396;2023-05-10T12:49:49;4.37;;;3.83;;
4210;SDS011;2119;48.828;12.396;2023-05-10T12:54:49;3.17;;;2.97;;
4210;SDS011;2119;48.828;12.396;2023-05-10T12:59:50;4.07;;;3.87;;
4210;SDS011;2119;48.828;12.396;2023-05-10T13:04:50;4.50;;;4.20;;
4210;SDS011;2119;48.828;12.396;2023-05-10T13:14:55;6.97;;;6.00;;
4210;SDS011;2119;48.828;12.396;2023-05-10T13:19:55;6.70;;;6.10;;
4210;SDS011;2119;48.828;12.396;2023-05-10T13:24:55;7.63;;;7.03;;
4210;SDS011;2119;48.828;12.396;2023-05-10T13:29:55;8.33;;;7.60;;
4210;SDS011;2119;48.828;12.396;2023-05-10T13:34:55;9.38;;;8.60;;
4210;SDS011;2119;48.828;12.396;2023-05-10T13:39:58;8.48;;;7.55;;
4210;SDS011;2119;48.828;12.396;2023-05-10T13:44:58;7.93;;;7.13;;
4210;SDS011;2119;48.828;12.396;2023-05-10T13:49:59;9.40;;;7.47;;
4210;SDS011;2119;48.828;12.396;2023-05-10T13:54:59;9.93;;;8.93;;
4210;SDS011;2119;48.828;12.396;2023-05-10T13:59:59;8.70;;;8.00;;
4210;SDS011;2119;48.828;12.396;2023-05-10T14:05:00;7.40;;;6.80;;
4210;SDS011;2119;48.828;12.396;2023-05-10T14:10:01;8.73;;;8.03;;
4210;SDS011;2119;48.828;12.396;2023-05-10T14:15:01;1.35;;;1.25;;
4210;SDS011;2119;48.828;12.396;2023-05-10T14:20:02;4.20;;;1.90;;
4210;SDS011;2119;48.828;12.396;2023-05-10T14:25:03;4.77;;;1.80;;
4210;SDS011;2119;48.828;12.396;2023-05-10T14:30:04;2.87;;;2.03;;
4210;SDS011;2119;48.828;12.396;2023-05-10T14:35:04;1.80;;;1.67;;
4210;SDS011;2119;48.828;12.396;2023-05-10T14:40:06;1.87;;;1.67;;
4210;SDS011;2119;48.828;12.396;2023-05-10T14:45:06;2.30;;;2.10;;
4210;SDS011;2119;48.828;12.396;2023-05-10T14:50:07;1.33;;;1.23;;
4210;SDS011;2119;48.828;12.396;2023-05-10T14:55:14;11.10;;;7.60;;
4210;SDS011;2119;48.828;12.396;2023-05-10T15:00:16;9.33;;;6.43;;
4210;SDS011;2119;48.828;12.396;2023-05-10T15:05:16;5.23;;;4.73;;
4210;SDS011;2119;48.828;12.396;2023-05-10T15:10:17;2.43;;;1.90;;
4210;SDS011;2119;48.828;12.396;2023-05-10T15:15:17;2.63;;;2.40;;
4210;SDS011;2119;48.828;12.396;2023-05-10T15:20:18;2.83;;;2.63;;
4210;SDS011;2119;48.828;12.396;2023-05-10T15:25:18;3.40;;;3.10;;
4210;SDS011;2119;48.828;12.396;2023-05-10T15:30:19;3.28;;;3.08;;
4210;SDS011;2119;48.828;12.396;2023-05-10T15:35:20;3.63;;;3.43;;
4210;SDS011;2119;48.828;12.396;2023-05-10T15:40:20;3.00;;;2.80;;
4210;SDS011;2119;48.828;12.396;2023-05-10T15:45:21;2.22;;;2.13;;
4210;SDS011;2119;48.828;12.396;2023-05-10T15:50:21;10.23;;;5.70;;
4210;SDS011;2119;48.828;12.396;2023-05-10T15:55:22;2.17;;;2.07;;
4210;SDS011;2119;48.828;12.396;2023-05-10T16:00:22;2.80;;;2.10;;
4210;SDS011;2119;48.828;12.396;2023-05-10T16:05:22;3.88;;;3.60;;
4210;SDS011;2119;48.828;12.396;2023-05-10T16:10:24;6.70;;;5.43;;
4210;SDS011;2119;48.828;12.396;2023-05-10T16:20:33;5.43;;;5.00;;
4210;SDS011;2119;48.828;12.396;2023-05-10T16:30:37;4.80;;;4.30;;
4210;SDS011;2119;48.828;12.396;2023-05-10T16:35:38;4.13;;;3.77;;
4210;SDS011;2119;48.828;12.396;2023-05-10T16:40:38;4.13;;;3.67;;
4210;SDS011;2119;48.828;12.396;2023-05-10T16:45:39;3.93;;;3.57;;
4210;SDS011;2119;48.828;12.396;2023-05-10T16:50:43;11.33;;;7.20;;
4210;SDS011;2119;48.828;12.396;2023-05-10T16:55:43;8.37;;;6.97;;
4210;SDS011;2119;48.828;12.396;2023-05-10T17:00:43;6.57;;;5.85;;
4210;SDS011;2119;48.828;12.396;2023-05-10T17:05:44;5.20;;;4.10;;
4210;SDS011;2119;48.828;12.396;2023-05-10T17:10:44;4.00;;;3.70;;
4210;SDS011;2119;48.828;12.396;2023-05-10T17:15:44;5.90;;;5.50;;
4210;SDS011;2119;48.828;12.396;2023-05-10T17:20:46;4.63;;;4.07;;
4210;SDS011;2119;48.828;12.396;2023-05-10T17:25:46;4.47;;;4.10;;
4210;SDS011;2119;48.828;12.396;2023-05-10T17:30:53;4.10;;;3.90;;
4210;SDS011;2119;48.828;12.396;2023-05-10T17:35:54;6.07;;;4.97;;
4210;SDS011;2119;48.828;12.396;2023-05-10T17:40:54;6.10;;;5.60;;
4210;SDS011;2119;48.828;12.396;2023-05-10T17:45:54;7.50;;;6.43;;
4210;SDS011;2119;48.828;12.396;2023-05-10T17:50:55;7.00;;;6.50;;
4210;SDS011;2119;48.828;12.396;2023-05-10T17:55:55;5.60;;;5.20;;
4210;SDS011;2119;48.828;12.396;2023-05-10T18:01:02;6.03;;;5.53;;
4210;SDS011;2119;48.828;12.396;2023-05-10T18:06:02;4.20;;;3.90;;
4210;SDS011;2119;48.828;12.396;2023-05-10T18:16:06;5.20;;;4.90;;
4210;SDS011;2119;48.828;12.396;2023-05-10T18:21:07;5.67;;;4.80;;
4210;SDS011;2119;48.828;12.396;2023-05-10T18:26:08;13.35;;;10.68;;
4210;SDS011;2119;48.828;12.396;2023-05-10T18:31:08;7.57;;;6.97;;
4210;SDS011;2119;48.828;12.396;2023-05-10T18:36:08;12.80;;;5.40;;
4210;SDS011;2119;48.828;12.396;2023-05-10T18:41:09;4.80;;;4.50;;
4210;SDS011;2119;48.828;12.396;2023-05-10T18:46:14;4.17;;;3.87;;
4210;SDS011;2119;48.828;12.396;2023-05-10T18:51:14;3.93;;;3.63;;
4210;SDS011;2119;48.828;12.396;2023-05-10T18:56:15;3.22;;;3.03;;
4210;SDS011;2119;48.828;12.396;2023-05-10T19:01:15;6.13;;;4.20;;
4210;SDS011;2119;48.828;12.396;2023-05-10T19:06:15;3.73;;;3.53;;
4210;SDS011;2119;48.828;12.396;2023-05-10T19:11:17;4.03;;;3.63;;
4210;SDS011;2119;48.828;12.396;2023-05-10T19:16:17;3.20;;;3.00;;
4210;SDS011;2119;48.828;12.396;2023-05-10T19:21:20;2.33;;;2.13;;
4210;SDS011;2119;48.828;12.396;2023-05-10T19:26:20;4.03;;;3.57;;
4210;SDS011;2119;48.828;12.396;2023-05-10T19:31:22;3.50;;;3.20;;
4210;SDS011;2119;48.828;12.396;2023-05-10T19:36:23;3.63;;;3.10;;
4210;SDS011;2119;48.828;12.396;2023-05-10T19:41:23;2.70;;;2.50;;
4210;SDS011;2119;48.828;12.396;2023-05-10T19:46:23;2.72;;;2.53;;
4210;SDS011;2119;48.828;12.396;2023-05-10T19:51:23;3.50;;;3.28;;
4210;SDS011;2119;48.828;12.396;2023-05-10T19:56:25;3.60;;;3.10;;
4210;SDS011;2119;48.828;12.396;2023-05-10T20:01:26;3.40;;;2.87;;
4210;SDS011;2119;48.828;12.396;2023-05-10T20:06:27;2.63;;;2.42;;
4210;SDS011;2119;48.828;12.396;2023-05-10T20:11:27;3.60;;;2.97;;
4210;SDS011;2119;48.828;12.396;2023-05-10T20:16:32;5.73;;;2.53;;
4210;SDS011;2119;48.828;12.396;2023-05-10T20:21:32;2.80;;;2.60;;
4210;SDS011;2119;48.828;12.396;2023-05-10T20:26:32;3.07;;;2.87;;
4210;SDS011;2119;48.828;12.396;2023-05-10T20:31:33;2.40;;;2.20;;
4210;SDS011;2119;48.828;12.396;2023-05-10T20:36:34;2.57;;;2.37;;
4210;SDS011;2119;48.828;12.396;2023-05-10T20:41:35;3.00;;;2.80;;
4210;SDS011;2119;48.828;12.396;2023-05-10T20:46:36;3.17;;;2.87;;
4210;SDS011;2119;48.828;12.396;2023-05-10T20:51:36;20.40;;;3.17;;
4210;SDS011;2119;48.828;12.396;2023-05-10T20:56:36;2.90;;;2.70;;
4210;SDS011;2119;48.828;12.396;2023-05-10T21:01:37;2.90;;;2.70;;
4210;SDS011;2119;48.828;12.396;2023-05-10T21:06:38;2.45;;;2.25;;
4210;SDS011;2119;48.828;12.396;2023-05-10T21:11:38;3.10;;;2.80;;
4210;SDS011;2119;48.828;12.396;2023-05-10T21:16:38;3.10;;;2.90;;
4210;SDS011;2119;48.828;12.396;2023-05-10T21:21:39;2.70;;;2.50;;
4210;SDS011;2119;48.828;12.396;2023-05-10T21:26:39;3.13;;;2.93;;
4210;SDS011;2119;48.828;12.396;2023-05-10T21:31:39;2.20;;;2.10;;
4210;SDS011;2119;48.828;12.396;2023-05-10T21:36:40;2.80;;;2.50;;
4210;SDS011;2119;48.828;12.396;2023-05-10T21:41:40;3.20;;;3.00;;
4210;SDS011;2119;48.828;12.396;2023-05-10T21:46:40;3.17;;;2.97;;
4210;SDS011;2119;48.828;12.396;2023-05-10T21:51:41;3.38;;;3.17;;
4210;SDS011;2119;48.828;12.396;2023-05-10T21:56:42;3.43;;;3.23;;
4210;SDS011;2119;48.828;12.396;2023-05-10T22:01:42;3.87;;;3.57;;
4210;SDS011;2119;48.828;12.396;2023-05-10T22:06:43;3.70;;;3.50;;
4210;SDS011;2119;48.828;12.396;2023-05-10T22:11:44;4.23;;;3.80;;
4210;SDS011;2119;48.828;12.396;2023-05-10T22:16:44;4.35;;;4.05;;
4210;SDS011;2119;48.828;12.396;2023-05-10T22:21:44;4.45;;;4.15;;
4210;SDS011;2119;48.828;12.396;2023-05-10T22:26:44;4.57;;;4.20;;
4210;SDS011;2119;48.828;12.396;2023-05-10T22:31:45;4.33;;;4.03;;
4210;SDS011;2119;48.828;12.396;2023-05-10T22:36:45;4.23;;;3.83;;
4210;SDS011;2119;48.828;12.396;2023-05-10T22:41:45;4.47;;;4.07;;
4210;SDS011;2119;48.828;12.396;2023-05-10T22:46:46;5.22;;;4.50;;
4210;SDS011;2119;48.828;12.396;2023-05-10T22:51:47;5.50;;;5.10;;
4210;SDS011;2119;48.828;12.396;2023-05-10T22:56:47;6.50;;;4.90;;
4210;SDS011;2119;48.828;12.396;2023-05-10T23:01:47;6.10;;;5.60;;
4210;SDS011;2119;48.828;12.396;2023-05-10T23:06:47;7.57;;;6.80;;
4210;SDS011;2119;48.828;12.396;2023-05-10T23:11:48;7.47;;;6.78;;
4210;SDS011;2119;48.828;12.396;2023-05-10T23:16:48;7.80;;;7.00;;
4210;SDS011;2119;48.828;12.396;2023-05-10T23:21:48;8.40;;;7.47;;
4210;SDS011;2119;48.828;12.396;2023-05-10T23:26:48;12.90;;;8.70;;
4210;SDS011;2119;48.828;12.396;2023-05-10T23:31:49;9.17;;;8.27;;
4210;SDS011;2119;48.828;12.396;2023-05-10T23:36:50;10.50;;;8.93;;
4210;SDS011;2119;48.828;12.396;2023-05-10T23:41:50;9.63;;;8.67;;
4210;SDS011;2119;48.828;12.396;2023-05-10T23:46:52;9.52;;;8.68;;
4210;SDS011;2119;48.828;12.396;2023-05-10T23:51:53;8.50;;;7.70;;
4210;SDS011;2119;48.828;12.396;2023-05-10T23:56:53;8.63;;;7.83;;
